sensor_id;sensor_type;location;lat;lon;timestamp;pressure;altitude;pressure_sealevel;temperature;humidity
64192;BME280;50497;50.720;-2.084;2023-02-15T00:00:21;102391.66;;;3.42;100.00
64192;BME280;50497;50.720;-2.084;2023-02-15T00:02:52;102381.06;;;3.37;100.00
64192;BME280;50497;50.720;-2.084;2023-02-15T00:05:28;102382.75;;;3.29;100.00
64192;BME280;50497;50.720;-2.084;2023-02-15T00:08:04;102392.41;;;3.22;100.00
64192;BME280;50497;50.720;-2.084;2023-02-15T00:10:36;102379.91;;;3.07;100.00
64192;BME280;50497;50.720;-2.084;2023-02-15T00:13:09;102396.72;;;3.16;100.00
64192;BME280;50497;50.720;-2.084;2023-02-15T00:15:38;102394.91;;;3.11;100.00
64192;BME280;50497;50.720;-2.084;2023-02-15T00:18:13;102394.03;;;3.09;100.00
64192;BME280;50497;50.720;-2.084;2023-02-15T00:20:49;102365.63;;;2.91;100.00
64192;BME280;50497;50.720;-2.084;2023-02-15T00:23:14;102369.16;;;2.93;100.00
64192;BME280;50497;50.720;-2.084;2023-02-15T00:25:51;102378.97;;;3.02;100.00
64192;BME280;50497;50.720;-2.084;2023-02-15T00:28:20;102373.69;;;3.02;100.00
64192;BME280;50497;50.720;-2.084;2023-02-15T00:30:53;102348.00;;;2.92;100.00
64192;BME280;50497;50.720;-2.084;2023-02-15T00:33:29;102371.97;;;3.10;100.00
64192;BME280;50497;50.720;-2.084;2023-02-15T00:36:08;102363.19;;;3.13;100.00
64192;BME280;50497;50.720;-2.084;2023-02-15T00:38:37;102359.75;;;3.22;100.00
64192;BME280;50497;50.720;-2.084;2023-02-15T00:41:09;102351.81;;;3.23;100.00
64192;BME280;50497;50.720;-2.084;2023-02-15T00:43:42;102361.63;;;3.35;100.00
64192;BME280;50497;50.720;-2.084;2023-02-15T00:46:18;102354.53;;;3.31;100.00
64192;BME280;50497;50.720;-2.084;2023-02-15T00:48:51;102349.31;;;3.37;100.00
64192;BME280;50497;50.720;-2.084;2023-02-15T00:51:25;102346.56;;;3.28;100.00
64192;BME280;50497;50.720;-2.084;2023-02-15T00:53:50;102351.00;;;3.32;100.00
64192;BME280;50497;50.720;-2.084;2023-02-15T00:56:19;102338.66;;;3.29;100.00
64192;BME280;50497;50.720;-2.084;2023-02-15T00:58:52;102344.88;;;3.36;100.00
64192;BME280;50497;50.720;-2.084;2023-02-15T01:01:19;102330.66;;;3.22;100.00
64192;BME280;50497;50.720;-2.084;2023-02-15T01:03:45;102337.75;;;3.27;100.00
64192;BME280;50497;50.720;-2.084;2023-02-15T01:06:16;102321.84;;;3.21;100.00
64192;BME280;50497;50.720;-2.084;2023-02-15T01:08:50;102347.56;;;3.39;100.00
64192;BME280;50497;50.720;-2.084;2023-02-15T01:11:21;102337.81;;;3.37;100.00
64192;BME280;50497;50.720;-2.084;2023-02-15T01:13:56;102325.44;;;3.29;100.00
64192;BME280;50497;50.720;-2.084;2023-02-15T01:16:27;102350.28;;;3.45;100.00
64192;BME280;50497;50.720;-2.084;2023-02-15T01:18:58;102355.50;;;3.41;100.00
64192;BME280;50497;50.720;-2.084;2023-02-15T01:21:29;102348.34;;;3.26;100.00
64192;BME280;50497;50.720;-2.084;2023-02-15T01:23:58;102350.97;;;3.26;100.00
64192;BME280;50497;50.720;-2.084;2023-02-15T01:26:24;102326.94;;;3.01;100.00
64192;BME280;50497;50.720;-2.084;2023-02-15T01:28:56;102337.63;;;3.13;100.00
64192;BME280;50497;50.720;-2.084;2023-02-15T01:31:25;102336.66;;;3.05;100.00
64192;BME280;50497;50.720;-2.084;2023-02-15T01:33:53;102336.66;;;3.05;100.00
64192;BME280;50497;50.720;-2.084;2023-02-15T01:36:23;102343.66;;;3.00;100.00
64192;BME280;50497;50.720;-2.084;2023-02-15T01:38:57;102338.34;;;2.97;100.00
64192;BME280;50497;50.720;-2.084;2023-02-15T01:41:30;102333.94;;;2.94;100.00
64192;BME280;50497;50.720;-2.084;2023-02-15T01:44:01;102338.13;;;2.72;100.00
64192;BME280;50497;50.720;-2.084;2023-02-15T01:46:49;102329.22;;;2.64;100.00
64192;BME280;50497;50.720;-2.084;2023-02-15T01:49:23;102331.72;;;2.53;100.00
64192;BME280;50497;50.720;-2.084;2023-02-15T01:51:55;102331.66;;;2.47;100.00
64192;BME280;50497;50.720;-2.084;2023-02-15T01:54:30;102329.84;;;2.42;100.00
64192;BME280;50497;50.720;-2.084;2023-02-15T01:57:00;102318.16;;;2.21;100.00
64192;BME280;50497;50.720;-2.084;2023-02-15T01:59:31;102326.09;;;2.22;100.00
64192;BME280;50497;50.720;-2.084;2023-02-15T02:02:04;102324.19;;;2.14;100.00
64192;BME280;50497;50.720;-2.084;2023-02-15T02:04:48;102327.78;;;2.16;100.00
64192;BME280;50497;50.720;-2.084;2023-02-15T02:07:16;102331.38;;;2.26;100.00
64192;BME280;50497;50.720;-2.084;2023-02-15T02:09:46;102323.44;;;2.21;100.00
64192;BME280;50497;50.720;-2.084;2023-02-15T02:12:16;102319.88;;;2.19;100.00
64192;BME280;50497;50.720;-2.084;2023-02-15T02:14:47;102317.25;;;2.20;100.00
64192;BME280;50497;50.720;-2.084;2023-02-15T02:17:27;102322.50;;;2.19;100.00
64192;BME280;50497;50.720;-2.084;2023-02-15T02:31:54;102281.91;;;2.11;100.00
64192;BME280;50497;50.720;-2.084;2023-02-15T02:34:36;102290.91;;;2.25;100.00
64192;BME280;50497;50.720;-2.084;2023-02-15T02:39:55;102295.16;;;2.14;100.00
64192;BME280;50497;50.720;-2.084;2023-02-15T02:43:05;102292.50;;;2.12;100.00
64192;BME280;50497;50.720;-2.084;2023-02-15T02:45:55;102285.41;;;2.07;100.00
64192;BME280;50497;50.720;-2.084;2023-02-15T02:48:25;102283.69;;;2.10;100.00
64192;BME280;50497;50.720;-2.084;2023-02-15T02:51:00;102279.31;;;2.14;100.00
64192;BME280;50497;50.720;-2.084;2023-02-15T02:53:36;102280.25;;;2.16;100.00
64192;BME280;50497;50.720;-2.084;2023-02-15T02:58:42;102270.63;;;2.24;100.00
64192;BME280;50497;50.720;-2.084;2023-02-15T03:01:31;102271.47;;;2.18;100.00
64192;BME280;50497;50.720;-2.084;2023-02-15T03:04:17;102271.59;;;2.29;100.00
64192;BME280;50497;50.720;-2.084;2023-02-15T03:06:55;102270.72;;;2.30;100.00
64192;BME280;50497;50.720;-2.084;2023-02-15T03:09:29;102261.84;;;2.25;100.00
64192;BME280;50497;50.720;-2.084;2023-02-15T03:12:04;102262.75;;;2.29;100.00
64192;BME280;50497;50.720;-2.084;2023-02-15T03:14:37;102248.56;;;2.16;100.00
64192;BME280;50497;50.720;-2.084;2023-02-15T03:17:10;102254.81;;;2.27;100.00
64192;BME280;50497;50.720;-2.084;2023-02-15T03:19:42;102245.00;;;2.15;100.00
64192;BME280;50497;50.720;-2.084;2023-02-15T03:25:18;102241.50;;;2.16;100.00
64192;BME280;50497;50.720;-2.084;2023-02-15T03:28:10;102236.22;;;2.16;100.00
64192;BME280;50497;50.720;-2.084;2023-02-15T03:30:40;102237.06;;;2.14;100.00
64192;BME280;50497;50.720;-2.084;2023-02-15T03:33:17;102230.97;;;2.18;100.00
64192;BME280;50497;50.720;-2.084;2023-02-15T03:35:54;102231.94;;;2.26;100.00
64192;BME280;50497;50.720;-2.084;2023-02-15T03:38:51;102227.53;;;2.27;100.00
64192;BME280;50497;50.720;-2.084;2023-02-15T03:41:27;102226.75;;;2.35;100.00
64192;BME280;50497;50.720;-2.084;2023-02-15T03:44:06;102222.34;;;2.33;100.00
64192;BME280;50497;50.720;-2.084;2023-02-15T03:47:19;102235.63;;;2.42;100.00
64192;BME280;50497;50.720;-2.084;2023-02-15T03:52:23;102237.97;;;2.13;100.00
64192;BME280;50497;50.720;-2.084;2023-02-15T03:54:58;102236.16;;;2.10;100.00
64192;BME280;50497;50.720;-2.084;2023-02-15T03:57:28;102237.66;;;1.88;100.00
64192;BME280;50497;50.720;-2.084;2023-02-15T04:00:21;102234.88;;;1.79;100.00
64192;BME280;50497;50.720;-2.084;2023-02-15T04:05:43;102228.75;;;1.80;100.00
64192;BME280;50497;50.720;-2.084;2023-02-15T04:08:15;102224.28;;;1.76;100.00
64192;BME280;50497;50.720;-2.084;2023-02-15T04:10:41;102223.38;;;1.72;100.00
64192;BME280;50497;50.720;-2.084;2023-02-15T04:13:31;102231.22;;;1.67;100.00
64192;BME280;50497;50.720;-2.084;2023-02-15T04:16:04;102235.53;;;1.62;100.00
64192;BME280;50497;50.720;-2.084;2023-02-15T04:18:37;102230.25;;;1.61;100.00
64192;BME280;50497;50.720;-2.084;2023-02-15T04:21:30;102225.09;;;1.69;100.00
64192;BME280;50497;50.720;-2.084;2023-02-15T04:24:18;102224.94;;;1.59;100.00
64192;BME280;50497;50.720;-2.084;2023-02-15T04:27:04;102212.63;;;1.57;100.00
64192;BME280;50497;50.720;-2.084;2023-02-15T04:29:31;102215.31;;;1.61;100.00
64192;BME280;50497;50.720;-2.084;2023-02-15T04:32:02;102224.94;;;1.59;100.00
64192;BME280;50497;50.720;-2.084;2023-02-15T04:34:36;102214.41;;;1.58;100.00
64192;BME280;50497;50.720;-2.084;2023-02-15T04:37:01;102213.50;;;1.57;100.00
64192;BME280;50497;50.720;-2.084;2023-02-15T04:39:33;102206.31;;;1.47;100.00
64192;BME280;50497;50.720;-2.084;2023-02-15T04:42:02;102223.06;;;1.51;100.00
64192;BME280;50497;50.720;-2.084;2023-02-15T04:44:36;102220.38;;;1.46;100.00
64192;BME280;50497;50.720;-2.084;2023-02-15T04:47:07;102215.91;;;1.40;100.00
64192;BME280;50497;50.720;-2.084;2023-02-15T04:49:39;102211.47;;;1.38;100.00
64192;BME280;50497;50.720;-2.084;2023-02-15T04:52:12;102204.47;;;1.40;100.00
64192;BME280;50497;50.720;-2.084;2023-02-15T04:54:49;102207.84;;;1.29;100.00
64192;BME280;50497;50.720;-2.084;2023-02-15T04:57:27;102205.16;;;1.26;100.00
64192;BME280;50497;50.720;-2.084;2023-02-15T05:00:02;102200.81;;;1.30;100.00
64192;BME280;50497;50.720;-2.084;2023-02-15T05:02:35;102199.97;;;1.33;100.00
64192;BME280;50497;50.720;-2.084;2023-02-15T05:05:05;102199.91;;;1.28;100.00
64192;BME280;50497;50.720;-2.084;2023-02-15T05:07:40;102198.94;;;1.21;100.00
64192;BME280;50497;50.720;-2.084;2023-02-15T05:10:12;102190.91;;;1.14;100.00
64192;BME280;50497;50.720;-2.084;2023-02-15T05:12:37;102189.13;;;1.13;100.00
64192;BME280;50497;50.720;-2.084;2023-02-15T05:15:08;102190.00;;;1.10;100.00
64192;BME280;50497;50.720;-2.084;2023-02-15T05:17:41;102187.31;;;1.07;100.00
64192;BME280;50497;50.720;-2.084;2023-02-15T05:20:12;102182.81;;;1.03;100.00
64192;BME280;50497;50.720;-2.084;2023-02-15T05:22:44;102188.06;;;1.01;100.00
64192;BME280;50497;50.720;-2.084;2023-02-15T05:25:13;102187.13;;;0.96;100.00
64192;BME280;50497;50.720;-2.084;2023-02-15T05:28:01;102200.22;;;0.90;100.00
64192;BME280;50497;50.720;-2.084;2023-02-15T05:31:02;102196.59;;;0.83;100.00
64192;BME280;50497;50.720;-2.084;2023-02-15T05:33:33;102196.72;;;0.92;100.00
64192;BME280;50497;50.720;-2.084;2023-02-15T05:36:06;102195.78;;;0.87;100.00
64192;BME280;50497;50.720;-2.084;2023-02-15T05:38:37;102195.81;;;0.89;100.00
64192;BME280;50497;50.720;-2.084;2023-02-15T05:41:07;102199.38;;;0.92;100.00
64192;BME280;50497;50.720;-2.084;2023-02-15T05:43:34;102199.41;;;0.94;100.00
64192;BME280;50497;50.720;-2.084;2023-02-15T05:46:04;102195.97;;;1.01;100.00
64192;BME280;50497;50.720;-2.084;2023-02-15T05:48:31;102189.00;;;1.03;100.00
64192;BME280;50497;50.720;-2.084;2023-02-15T05:51:04;102197.13;;;1.17;100.00
64192;BME280;50497;50.720;-2.084;2023-02-15T05:53:32;102200.81;;;1.30;100.00
64192;BME280;50497;50.720;-2.084;2023-02-15T05:56:06;102202.59;;;1.29;100.00
64192;BME280;50497;50.720;-2.084;2023-02-15T05:58:38;102196.38;;;1.27;100.00
64192;BME280;50497;50.720;-2.084;2023-02-15T06:01:13;102186.56;;;1.17;100.00
64192;BME280;50497;50.720;-2.084;2023-02-15T06:03:39;102202.44;;;1.20;100.00
64192;BME280;50497;50.720;-2.084;2023-02-15T06:06:06;102197.00;;;1.09;100.00
64192;BME280;50497;50.720;-2.084;2023-02-15T06:08:32;102212.00;;;1.14;100.00
64192;BME280;50497;50.720;-2.084;2023-02-15T06:10:59;102208.38;;;1.07;100.00
64192;BME280;50497;50.720;-2.084;2023-02-15T06:13:26;102207.56;;;1.11;100.00
64192;BME280;50497;50.720;-2.084;2023-02-15T06:16:00;102206.81;;;1.18;100.00
64192;BME280;50497;50.720;-2.084;2023-02-15T06:18:30;102196.81;;;0.97;100.00
64192;BME280;50497;50.720;-2.084;2023-02-15T06:20:55;102214.47;;;1.03;100.00
64192;BME280;50497;50.720;-2.084;2023-02-15T06:23:26;102209.06;;;0.94;100.00
64192;BME280;50497;50.720;-2.084;2023-02-15T06:25:52;102215.28;;;0.99;100.00
64192;BME280;50497;50.720;-2.084;2023-02-15T06:28:18;102221.41;;;0.98;100.00
64192;BME280;50497;50.720;-2.084;2023-02-15T06:30:47;102216.16;;;0.99;100.00
64192;BME280;50497;50.720;-2.084;2023-02-15T06:33:16;102229.28;;;0.96;100.00
64192;BME280;50497;50.720;-2.084;2023-02-15T06:35:45;102231.88;;;0.91;100.00
64192;BME280;50497;50.720;-2.084;2023-02-15T06:38:12;102230.19;;;0.97;100.00
64192;BME280;50497;50.720;-2.084;2023-02-15T06:40:39;102224.94;;;0.97;100.00
64192;BME280;50497;50.720;-2.084;2023-02-15T06:43:08;102226.69;;;0.98;100.00
64192;BME280;50497;50.720;-2.084;2023-02-15T06:45:38;102237.09;;;0.88;100.00
64192;BME280;50497;50.720;-2.084;2023-02-15T06:48:07;102233.63;;;0.92;100.00
64192;BME280;50497;50.720;-2.084;2023-02-15T06:50:34;102239.81;;;0.93;100.00
64192;BME280;50497;50.720;-2.084;2023-02-15T06:52:59;102242.34;;;0.88;100.00
64192;BME280;50497;50.720;-2.084;2023-02-15T06:55:27;102244.09;;;0.89;100.00
64192;BME280;50497;50.720;-2.084;2023-02-15T06:57:56;102254.63;;;0.86;100.00
64192;BME280;50497;50.720;-2.084;2023-02-15T07:00:22;102260.78;;;0.87;100.00
64192;BME280;50497;50.720;-2.084;2023-02-15T07:02:58;102270.50;;;0.92;100.00
64192;BME280;50497;50.720;-2.084;2023-02-15T07:05:25;102270.41;;;0.85;100.00
64192;BME280;50497;50.720;-2.084;2023-02-15T07:08:00;102276.66;;;0.91;100.00
64192;BME280;50497;50.720;-2.084;2023-02-15T07:10:27;102274.81;;;0.87;100.00
64192;BME280;50497;50.720;-2.084;2023-02-15T07:12:53;102270.38;;;0.83;100.00
64192;BME280;50497;50.720;-2.084;2023-02-15T07:15:21;102277.22;;;0.73;100.00
64192;BME280;50497;50.720;-2.084;2023-02-15T07:17:48;102272.03;;;0.77;100.00
64192;BME280;50497;50.720;-2.084;2023-02-15T07:20:22;102282.59;;;0.78;100.00
64192;BME280;50497;50.720;-2.084;2023-02-15T07:22:49;102274.59;;;0.73;100.00
64192;BME280;50497;50.720;-2.084;2023-02-15T07:25:15;102285.22;;;0.80;100.00
64192;BME280;50497;50.720;-2.084;2023-02-15T07:27:41;102286.91;;;0.76;100.00
64192;BME280;50497;50.720;-2.084;2023-02-15T07:30:16;102284.38;;;0.81;100.00
64192;BME280;50497;50.720;-2.084;2023-02-15T07:32:42;102280.22;;;0.94;100.00
64192;BME280;50497;50.720;-2.084;2023-02-15T07:35:29;102284.47;;;0.85;100.00
64192;BME280;50497;50.720;-2.084;2023-02-15T07:38:01;102284.53;;;0.88;100.00
64192;BME280;50497;50.720;-2.084;2023-02-15T07:40:31;102278.22;;;0.80;100.00
64192;BME280;50497;50.720;-2.084;2023-02-15T07:43:03;102303.06;;;0.96;100.00
64192;BME280;50497;50.720;-2.084;2023-02-15T07:45:29;102311.09;;;1.02;100.00
64192;BME280;50497;50.720;-2.084;2023-02-15T07:48:02;102305.69;;;0.95;100.00
64192;BME280;50497;50.720;-2.084;2023-02-15T07:50:30;102318.06;;;0.99;100.00
64192;BME280;50497;50.720;-2.084;2023-02-15T07:53:01;102312.59;;;0.88;100.00
64192;BME280;50497;50.720;-2.084;2023-02-15T07:55:31;102311.66;;;0.84;100.00
64192;BME280;50497;50.720;-2.084;2023-02-15T07:58:02;102305.59;;;0.88;100.00
64192;BME280;50497;50.720;-2.084;2023-02-15T08:00:28;102298.53;;;0.87;100.00
64192;BME280;50497;50.720;-2.084;2023-02-15T08:03:18;102308.38;;;0.98;100.00
64192;BME280;50497;50.720;-2.084;2023-02-15T08:05:46;102308.41;;;0.99;100.00
64192;BME280;50497;50.720;-2.084;2023-02-15T08:08:16;102318.00;;;0.96;100.00
64192;BME280;50497;50.720;-2.084;2023-02-15T08:13:53;102326.88;;;1.01;100.00
64192;BME280;50497;50.720;-2.084;2023-02-15T08:16:25;102319.94;;;1.06;100.00
64192;BME280;50497;50.720;-2.084;2023-02-15T08:19:01;102322.69;;;1.12;100.00
64192;BME280;50497;50.720;-2.084;2023-02-15T08:21:34;102314.16;;;1.27;100.00
64192;BME280;50497;50.720;-2.084;2023-02-15T08:24:00;102318.53;;;1.26;100.00
64192;BME280;50497;50.720;-2.084;2023-02-15T08:26:32;102326.66;;;1.39;100.00
64192;BME280;50497;50.720;-2.084;2023-02-15T08:28:59;102313.66;;;1.51;100.00
64192;BME280;50497;50.720;-2.084;2023-02-15T08:31:30;102323.09;;;1.37;100.00
64192;BME280;50497;50.720;-2.084;2023-02-15T08:33:56;102317.06;;;1.45;100.00
64192;BME280;50497;50.720;-2.084;2023-02-15T08:36:31;102307.34;;;1.40;100.00
64192;BME280;50497;50.720;-2.084;2023-02-15T08:39:08;102309.22;;;1.48;100.00
64192;BME280;50497;50.720;-2.084;2023-02-15T08:41:39;102313.78;;;1.60;100.00
64192;BME280;50497;50.720;-2.084;2023-02-15T08:44:15;102307.72;;;1.64;100.00
64192;BME280;50497;50.720;-2.084;2023-02-15T08:46:49;102297.22;;;1.71;100.00
64192;BME280;50497;50.720;-2.084;2023-02-15T08:49:21;102294.56;;;1.69;100.00
64192;BME280;50497;50.720;-2.084;2023-02-15T08:51:47;102289.53;;;1.84;100.00
64192;BME280;50497;50.720;-2.084;2023-02-15T08:54:19;102282.66;;;2.00;100.00
64192;BME280;50497;50.720;-2.084;2023-02-15T08:56:51;102279.31;;;2.14;100.00
64192;BME280;50497;50.720;-2.084;2023-02-15T08:59:22;102263.50;;;2.17;100.00
64192;BME280;50497;50.720;-2.084;2023-02-15T09:01:49;102252.72;;;1.97;100.00
64192;BME280;50497;50.720;-2.084;2023-02-15T09:04:20;102270.63;;;2.24;100.00
64192;BME280;50497;50.720;-2.084;2023-02-15T09:06:47;102273.38;;;2.33;100.00
64192;BME280;50497;50.720;-2.084;2023-02-15T09:09:18;102284.09;;;2.47;100.00
64192;BME280;50497;50.720;-2.084;2023-02-15T09:11:47;102268.47;;;2.70;100.00
64192;BME280;50497;50.720;-2.084;2023-02-15T09:14:20;102259.75;;;2.77;100.00
64192;BME280;50497;50.720;-2.084;2023-02-15T09:16:51;102249.50;;;3.14;100.00
64192;BME280;50497;50.720;-2.084;2023-02-15T09:19:21;102255.97;;;3.63;100.00
64192;BME280;50497;50.720;-2.084;2023-02-15T09:21:54;102255.28;;;3.98;100.00
64192;BME280;50497;50.720;-2.084;2023-02-15T09:24:20;102245.63;;;4.21;100.00
64192;BME280;50497;50.720;-2.084;2023-02-15T09:26:53;102227.16;;;4.35;100.00
64192;BME280;50497;50.720;-2.084;2023-02-15T09:29:19;102213.94;;;4.54;100.00
64192;BME280;50497;50.720;-2.084;2023-02-15T09:31:53;102203.34;;;5.03;100.00
64192;BME280;50497;50.720;-2.084;2023-02-15T09:34:22;102183.69;;;5.78;100.00
64192;BME280;50497;50.720;-2.084;2023-02-15T09:36:49;102170.75;;;6.65;100.00
64192;BME280;50497;50.720;-2.084;2023-02-15T09:39:22;102157.56;;;7.46;100.00
64192;BME280;50497;50.720;-2.084;2023-02-15T09:44:55;102124.66;;;8.71;100.00
64192;BME280;50497;50.720;-2.084;2023-02-15T09:50:36;102098.78;;;9.67;100.00
64192;BME280;50497;50.720;-2.084;2023-02-15T10:03:33;102178.66;;;11.93;100.00
64192;BME280;50497;50.720;-2.084;2023-02-15T10:12:06;102203.69;;;12.24;100.00
64192;BME280;50497;50.720;-2.084;2023-02-15T10:17:55;102237.25;;;13.71;100.00
64192;BME280;50497;50.720;-2.084;2023-02-15T10:26:01;102280.19;;;14.22;100.00
64192;BME280;50497;50.720;-2.084;2023-02-15T10:28:46;102274.56;;;14.76;100.00
64192;BME280;50497;50.720;-2.084;2023-02-15T10:31:55;102296.03;;;15.00;100.00
64192;BME280;50497;50.720;-2.084;2023-02-15T10:45:43;102252.91;;;13.34;100.00
64192;BME280;50497;50.720;-2.084;2023-02-15T10:49:14;102254.25;;;14.44;100.00
64192;BME280;50497;50.720;-2.084;2023-02-15T10:54:16;102260.84;;;14.58;100.00
64192;BME280;50497;50.720;-2.084;2023-02-15T11:07:57;102279.38;;;15.74;100.00
64192;BME280;50497;50.720;-2.084;2023-02-15T11:10:39;102269.97;;;15.84;100.00
64192;BME280;50497;50.720;-2.084;2023-02-15T11:13:17;102270.34;;;15.33;100.00
64192;BME280;50497;50.720;-2.084;2023-02-15T11:18:43;102268.56;;;16.72;100.00
64192;BME280;50497;50.720;-2.084;2023-02-15T11:21:22;102279.09;;;16.59;100.00
64192;BME280;50497;50.720;-2.084;2023-02-15T11:24:00;102271.03;;;17.83;100.00
64192;BME280;50497;50.720;-2.084;2023-02-15T11:26:36;102280.78;;;16.42;100.00
64192;BME280;50497;50.720;-2.084;2023-02-15T11:31:45;102274.53;;;16.02;100.00
64192;BME280;50497;50.720;-2.084;2023-02-15T11:34:29;102288.25;;;16.17;100.00
64192;BME280;50497;50.720;-2.084;2023-02-15T11:37:07;102277.09;;;17.01;100.00
64192;BME280;50497;50.720;-2.084;2023-02-15T11:39:41;102280.38;;;17.25;100.00
64192;BME280;50497;50.720;-2.084;2023-02-15T11:42:21;102280.06;;;17.31;100.00
64192;BME280;50497;50.720;-2.084;2023-02-15T11:45:29;102284.13;;;17.22;100.00
64192;BME280;50497;50.720;-2.084;2023-02-15T11:47:59;102284.88;;;16.70;100.00
64192;BME280;50497;50.720;-2.084;2023-02-15T11:50:34;102276.59;;;16.54;100.00
64192;BME280;50497;50.720;-2.084;2023-02-15T11:53:12;102262.78;;;16.79;100.00
64192;BME280;50497;50.720;-2.084;2023-02-15T11:55:41;102272.53;;;16.46;100.00
64192;BME280;50497;50.720;-2.084;2023-02-15T12:01:17;102266.44;;;16.78;100.00
64192;BME280;50497;50.720;-2.084;2023-02-15T12:06:53;102272.66;;;17.34;100.00
64192;BME280;50497;50.720;-2.084;2023-02-15T12:12:31;102280.91;;;18.67;100.00
64192;BME280;50497;50.720;-2.084;2023-02-15T12:15:05;102268.44;;;17.46;100.00
64192;BME280;50497;50.720;-2.084;2023-02-15T12:17:39;102284.19;;;16.46;100.00
64192;BME280;50497;50.720;-2.084;2023-02-15T12:20:32;102284.34;;;17.00;100.00
64192;BME280;50497;50.720;-2.084;2023-02-15T12:23:12;102287.44;;;17.97;100.00
64192;BME280;50497;50.720;-2.084;2023-02-15T12:26:04;102276.19;;;18.70;100.00
64192;BME280;50497;50.720;-2.084;2023-02-15T12:28:36;102280.72;;;18.70;100.00
64192;BME280;50497;50.720;-2.084;2023-02-15T12:34:20;102273.84;;;17.29;100.00
64192;BME280;50497;50.720;-2.084;2023-02-15T12:37:00;102252.13;;;18.32;100.00
64192;BME280;50497;50.720;-2.084;2023-02-15T12:39:34;102280.22;;;17.63;100.00
64192;BME280;50497;50.720;-2.084;2023-02-15T12:42:14;102275.63;;;18.32;100.00
64192;BME280;50497;50.720;-2.084;2023-02-15T12:45:08;102277.81;;;19.51;100.00
64192;BME280;50497;50.720;-2.084;2023-02-15T12:48:18;102277.66;;;18.28;100.00
64192;BME280;50497;50.720;-2.084;2023-02-15T12:50:46;102271.56;;;18.07;100.00
64192;BME280;50497;50.720;-2.084;2023-02-15T12:53:29;102271.34;;;16.70;100.00
64192;BME280;50497;50.720;-2.084;2023-02-15T12:56:08;102265.97;;;17.24;100.00
64192;BME280;50497;50.720;-2.084;2023-02-15T12:58:43;102267.34;;;17.50;100.00
64192;BME280;50497;50.720;-2.084;2023-02-15T13:01:19;102265.22;;;18.08;100.00
64192;BME280;50497;50.720;-2.084;2023-02-15T13:04:02;102272.53;;;18.06;100.00
64192;BME280;50497;50.720;-2.084;2023-02-15T13:06:34;102271.53;;;17.91;100.00
64192;BME280;50497;50.720;-2.084;2023-02-15T13:09:18;102254.41;;;17.90;100.00
64192;BME280;50497;50.720;-2.084;2023-02-15T13:11:45;102273.97;;;18.29;100.00
64192;BME280;50497;50.720;-2.084;2023-02-15T13:14:31;102266.16;;;17.39;100.00
64192;BME280;50497;50.720;-2.084;2023-02-15T13:17:05;102239.69;;;17.79;100.00
64192;BME280;50497;50.720;-2.084;2023-02-15T13:19:35;102227.53;;;17.70;100.00
64192;BME280;50497;50.720;-2.084;2023-02-15T13:22:25;102232.84;;;17.71;100.00
64192;BME280;50497;50.720;-2.084;2023-02-15T13:25:10;102240.59;;;17.44;100.00
64192;BME280;50497;50.720;-2.084;2023-02-15T13:27:43;102230.75;;;17.94;100.00
64192;BME280;50497;50.720;-2.084;2023-02-15T13:30:25;102228.50;;;17.51;100.00
64192;BME280;50497;50.720;-2.084;2023-02-15T13:32:56;102230.22;;;17.70;100.00
64192;BME280;50497;50.720;-2.084;2023-02-15T13:35:25;102232.25;;;18.16;100.00
64192;BME280;50497;50.720;-2.084;2023-02-15T13:41:16;102238.09;;;16.68;100.00
64192;BME280;50497;50.720;-2.084;2023-02-15T13:46:28;102226.94;;;17.30;100.00
64192;BME280;50497;50.720;-2.084;2023-02-15T14:09:40;102206.56;;;17.05;100.00
64192;BME280;50497;50.720;-2.084;2023-02-15T14:18:30;102217.69;;;16.80;100.00
64192;BME280;50497;50.720;-2.084;2023-02-15T14:24:01;102214.19;;;15.64;100.00
64192;BME280;50497;50.720;-2.084;2023-02-15T14:32:51;102189.91;;;15.02;100.00
64192;BME280;50497;50.720;-2.084;2023-02-15T14:35:21;102185.69;;;14.07;100.00
64192;BME280;50497;50.720;-2.084;2023-02-15T14:40:51;102166.00;;;13.59;100.00
64192;BME280;50497;50.720;-2.084;2023-02-15T14:46:48;102149.97;;;14.25;100.00
64192;BME280;50497;50.720;-2.084;2023-02-15T14:49:26;102153.59;;;14.24;100.00
64192;BME280;50497;50.720;-2.084;2023-02-15T14:51:57;102144.63;;;13.78;100.00
64192;BME280;50497;50.720;-2.084;2023-02-15T15:05:06;102123.28;;;11.92;100.00
64192;BME280;50497;50.720;-2.084;2023-02-15T15:07:38;102117.38;;;11.79;100.00
64192;BME280;50497;50.720;-2.084;2023-02-15T15:10:33;102105.69;;;11.82;100.00
64192;BME280;50497;50.720;-2.084;2023-02-15T15:18:51;102079.41;;;11.63;100.00
64192;BME280;50497;50.720;-2.084;2023-02-15T15:35:49;102057.13;;;11.61;100.00
64192;BME280;50497;50.720;-2.084;2023-02-15T15:41:42;102061.53;;;11.64;100.00
64192;BME280;50497;50.720;-2.084;2023-02-15T15:47:13;102059.47;;;11.44;100.00
64192;BME280;50497;50.720;-2.084;2023-02-15T15:49:43;102056.41;;;11.56;100.00
64192;BME280;50497;50.720;-2.084;2023-02-15T15:52:20;102053.94;;;11.49;100.00
64192;BME280;50497;50.720;-2.084;2023-02-15T15:54:56;102051.78;;;11.32;100.00
64192;BME280;50497;50.720;-2.084;2023-02-15T15:57:34;102050.78;;;11.36;100.00
64192;BME280;50497;50.720;-2.084;2023-02-15T16:00:28;102050.34;;;11.50;100.00
64192;BME280;50497;50.720;-2.084;2023-02-15T16:02:55;102061.19;;;11.45;100.00
64192;BME280;50497;50.720;-2.084;2023-02-15T16:05:21;102047.19;;;11.35;100.00
64192;BME280;50497;50.720;-2.084;2023-02-15T16:07:54;102043.97;;;11.24;100.00
64192;BME280;50497;50.720;-2.084;2023-02-15T16:10:21;102048.28;;;11.30;100.00
64192;BME280;50497;50.720;-2.084;2023-02-15T16:12:51;102050.81;;;11.34;100.00
64192;BME280;50497;50.720;-2.084;2023-02-15T16:15:24;102048.91;;;11.38;100.00
64192;BME280;50497;50.720;-2.084;2023-02-15T16:18:02;102054.63;;;11.25;100.00
64192;BME280;50497;50.720;-2.084;2023-02-15T16:20:36;102051.78;;;11.32;100.00